Crossroads, Texas
Current Conditions -  °F | °C
As of 2:53 AM on Sunday 26 Oct 2014 (Local Time) from KDTO Reporting Station
Clear Clear  
Wind Chill: 68°   Ceiling: Unl
Heat Index: 68°   Visibility: 10mi
Dew Point: 59°   Wind: 5mph
Humidity: 73%   Direction: 170°S
Pressure: 30.01"   Gusts: NA
Location:  33.2863°N, 96.9901°W
Report Text: KDTO 260753Z AUTO 17004KT 10SM CLR 20/15 A3001 RMK AO2 SLP154 T02000150
Loading
Personal Weather Stations






























Interactive Weather Map
Tropical Storm Tracking
New forecast layout! Learn more

10-Day Weather Forecast

Advertisements
Track Severe Weather on mobile